createdAt,value
2023-07-07T00:00:29.885Z,100721.47
2023-07-07T00:02:57.050Z,100740.88
2023-07-07T00:05:24.239Z,100722.50
2023-07-07T00:07:52.066Z,100724.75
2023-07-07T00:10:19.948Z,100736.19
2023-07-07T00:12:47.559Z,100729.22
2023-07-07T00:15:15.757Z,100727.88
2023-07-07T00:17:44.070Z,100736.72
2023-07-07T00:20:14.059Z,100738.97
2023-07-07T00:22:41.850Z,100728.84
2023-07-07T00:25:11.048Z,100733.25
2023-07-07T00:27:39.306Z,100734.31
2023-07-07T00:30:07.983Z,100739.94
2023-07-07T00:32:35.993Z,100728.88
2023-07-07T00:35:03.300Z,100726.91
2023-07-07T00:37:30.831Z,100732.31
2023-07-07T00:39:58.171Z,100738.09
2023-07-07T00:42:25.278Z,100739.84
2023-07-07T00:45:15.414Z,100744.66
2023-07-07T00:47:57.382Z,100737.31
2023-07-07T00:50:41.925Z,100729.56
2023-07-07T00:53:09.052Z,100726.97
2023-07-07T00:55:45.733Z,100729.75
2023-07-07T00:58:17.888Z,100723.81
2023-07-07T01:00:54.159Z,100731.53
2023-07-07T01:03:32.534Z,100728.63
2023-07-07T01:06:03.241Z,100728.56
2023-07-07T01:08:30.769Z,100723.88
2023-07-07T01:10:59.402Z,100731.03
2023-07-07T01:13:27.607Z,100725.63
2023-07-07T01:16:07.629Z,100723.44
2023-07-07T01:18:40.860Z,100722.88
2023-07-07T01:21:19.064Z,100718.13
2023-07-07T01:24:25.684Z,100717.09
2023-07-07T01:27:01.298Z,100720.81
2023-07-07T01:29:57.921Z,100717.09
2023-07-07T01:32:30.483Z,100722.34
2023-07-07T01:34:59.909Z,100722.38
2023-07-07T01:37:27.506Z,100721.22
2023-07-07T01:39:55.630Z,100716.84
2023-07-07T01:42:35.818Z,100724.38
2023-07-07T01:45:07.881Z,100718.03
2023-07-07T01:47:38.470Z,100722.59
2023-07-07T01:50:16.587Z,100716.50
2023-07-07T01:52:53.627Z,100716.81
2023-07-07T01:55:32.380Z,100713.13
2023-07-07T01:58:03.890Z,100720.25
2023-07-07T02:00:33.036Z,100719.44
2023-07-07T02:03:01.284Z,100710.38
2023-07-07T02:05:32.402Z,100712.59
2023-07-07T02:08:00.023Z,100702.81
2023-07-07T02:10:27.413Z,100701.91
2023-07-07T02:12:54.501Z,100703.56
2023-07-07T02:15:21.499Z,100710.72
2023-07-07T02:17:49.624Z,100706.50
2023-07-07T02:20:17.186Z,100702.16
2023-07-07T02:22:44.805Z,100704.38
2023-07-07T02:25:11.885Z,100704.97
2023-07-07T02:27:39.273Z,100704.44
2023-07-07T02:30:07.145Z,100701.81
2023-07-07T02:32:34.461Z,100701.66
2023-07-07T02:35:03.880Z,100695.03
2023-07-07T02:37:31.399Z,100695.25
2023-07-07T02:39:58.749Z,100692.34
2023-07-07T02:42:26.091Z,100699.59
2023-07-07T02:44:53.421Z,100698.47
2023-07-07T02:47:20.515Z,100698.59
2023-07-07T02:49:48.052Z,100704.66
2023-07-07T02:52:15.015Z,100697.19
2023-07-07T02:54:42.176Z,100694.59
2023-07-07T02:57:10.117Z,100700.75
2023-07-07T02:59:37.713Z,100692.72
2023-07-07T03:02:05.157Z,100702.88
2023-07-07T03:04:34.346Z,100693.63
2023-07-07T03:07:01.390Z,100702.97
2023-07-07T03:09:28.680Z,100697.94
2023-07-07T03:11:55.821Z,100698.84
2023-07-07T03:14:23.478Z,100700.75
2023-07-07T03:16:53.190Z,100708.09
2023-07-07T03:19:21.250Z,100709.56
2023-07-07T03:21:48.931Z,100713.91
2023-07-07T03:24:16.994Z,100700.63
2023-07-07T03:26:44.717Z,100709.78
2023-07-07T03:29:14.188Z,100709.47
2023-07-07T03:31:41.683Z,100700.19
2023-07-07T03:34:08.867Z,100704.50
2023-07-07T03:36:37.385Z,100700.66
2023-07-07T03:39:05.158Z,100698.81
2023-07-07T03:41:33.293Z,100685.88
2023-07-07T03:44:00.734Z,100689.09
2023-07-07T03:46:29.743Z,100703.81
2023-07-07T03:48:58.019Z,100697.09
2023-07-07T03:51:26.637Z,100692.47
2023-07-07T03:53:54.703Z,100697.94
2023-07-07T03:56:21.873Z,100690.28
2023-07-07T03:58:49.270Z,100691.53
2023-07-07T04:01:16.996Z,100690.69
2023-07-07T04:03:46.853Z,100692.56
2023-07-07T04:06:19.012Z,100690.44
2023-07-07T04:08:48.479Z,100689.88
2023-07-07T04:11:20.466Z,100687.38
2023-07-07T04:13:50.296Z,100685.09
2023-07-07T04:16:23.274Z,100678.75
2023-07-07T04:18:52.088Z,100678.72
2023-07-07T04:21:22.350Z,100677.38
2023-07-07T04:23:52.650Z,100667.16
2023-07-07T04:26:21.712Z,100667.16
2023-07-07T04:28:52.830Z,100673.09
2023-07-07T04:31:22.551Z,100665.59
2023-07-07T04:33:50.004Z,100660.94
2023-07-07T04:36:18.133Z,100668.38
2023-07-07T04:38:46.187Z,100669.31
2023-07-07T04:41:17.156Z,100665.88
2023-07-07T04:43:46.779Z,100667.63
2023-07-07T04:46:16.707Z,100660.94
2023-07-07T04:48:43.948Z,100671.47
2023-07-07T04:51:12.494Z,100668.50
2023-07-07T04:53:40.983Z,100669.53
2023-07-07T04:56:13.356Z,100669.91
2023-07-07T04:58:41.601Z,100663.19
2023-07-07T05:01:12.175Z,100664.03
2023-07-07T05:03:41.366Z,100660.50
2023-07-07T05:06:10.704Z,100663.19
2023-07-07T05:08:41.333Z,100665.91
2023-07-07T05:11:16.540Z,100667.84
2023-07-07T05:13:49.874Z,100671.69
2023-07-07T05:16:20.814Z,100672.72
2023-07-07T05:18:48.880Z,100659.22
2023-07-07T05:21:18.338Z,100667.44
2023-07-07T05:23:45.971Z,100668.28
2023-07-07T05:26:13.477Z,100663.34
2023-07-07T05:28:40.725Z,100659.53
2023-07-07T05:31:09.373Z,100666.41
2023-07-07T05:33:39.795Z,100670.31
2023-07-07T05:36:11.651Z,100674.94
2023-07-07T05:38:41.079Z,100675.84
2023-07-07T05:41:10.134Z,100672.81
2023-07-07T05:43:38.698Z,100663.78
2023-07-07T05:46:10.260Z,100670.75
2023-07-07T05:48:37.535Z,100672.59
2023-07-07T05:51:06.697Z,100668.09
2023-07-07T05:53:35.596Z,100673.63
2023-07-07T05:56:09.752Z,100658.88
2023-07-07T05:58:38.111Z,100654.56
2023-07-07T06:01:05.347Z,100657.63
2023-07-07T06:03:33.460Z,100658.44
2023-07-07T06:06:02.718Z,100655.03
2023-07-07T06:08:32.424Z,100653.06
2023-07-07T06:11:01.213Z,100645.63
2023-07-07T06:13:29.862Z,100644.94
2023-07-07T06:15:59.488Z,100639.34
2023-07-07T06:18:27.201Z,100645.22
2023-07-07T06:20:57.229Z,100641.75
2023-07-07T06:23:24.858Z,100638.06
2023-07-07T06:25:52.257Z,100642.31
2023-07-07T06:28:20.908Z,100642.72
2023-07-07T06:30:49.927Z,100646.00
2023-07-07T06:33:20.845Z,100641.97
2023-07-07T06:35:48.971Z,100632.00
2023-07-07T06:38:16.524Z,100636.63
2023-07-07T06:40:43.958Z,100634.09
2023-07-07T06:43:13.964Z,100638.03
2023-07-07T06:45:41.518Z,100629.88
2023-07-07T06:48:09.284Z,100625.63
2023-07-07T06:50:39.180Z,100626.31
2023-07-07T06:53:06.726Z,100622.38
2023-07-07T06:55:34.225Z,100628.94
2023-07-07T06:58:01.315Z,100626.28
2023-07-07T07:00:29.259Z,100626.09
2023-07-07T07:02:56.433Z,100623.47
2023-07-07T07:05:23.635Z,100628.66
2023-07-07T07:07:51.828Z,100632.25
2023-07-07T07:10:19.353Z,100627.66
2023-07-07T07:12:47.062Z,100624.16
2023-07-07T07:15:14.606Z,100622.75
2023-07-07T07:17:41.990Z,100618.81
2023-07-07T07:20:12.328Z,100627.50
2023-07-07T07:22:39.772Z,100622.97
2023-07-07T07:25:07.855Z,100617.66
2023-07-07T07:27:35.336Z,100619.28
2023-07-07T07:30:02.357Z,100624.72
2023-07-07T07:32:29.817Z,100618.69
2023-07-07T07:34:56.869Z,100616.47
2023-07-07T07:37:23.905Z,100618.78
2023-07-07T07:39:53.277Z,100602.88
2023-07-07T07:42:22.531Z,100615.34
2023-07-07T07:44:49.739Z,100612.25
2023-07-07T07:47:18.307Z,100612.25
2023-07-07T07:49:46.829Z,100607.78
2023-07-07T07:52:14.017Z,100613.81
2023-07-07T07:54:41.034Z,100619.53
2023-07-07T07:57:09.361Z,100619.22
2023-07-07T07:59:36.460Z,100613.41
2023-07-07T08:02:04.136Z,100621.94
2023-07-07T08:04:32.401Z,100612.28
2023-07-07T08:06:59.387Z,100627.75
2023-07-07T08:09:26.465Z,100613.31
2023-07-07T08:11:55.709Z,100618.22
2023-07-07T08:14:31.362Z,100621.56
2023-07-07T08:17:09.095Z,100621.47
2023-07-07T08:19:38.876Z,100618.44
2023-07-07T08:22:10.029Z,100622.41
2023-07-07T08:24:48.308Z,100617.13
2023-07-07T08:29:51.046Z,100634.69
2023-07-07T08:32:22.593Z,100625.25
2023-07-07T08:34:54.516Z,100615.16
2023-07-07T08:37:26.359Z,100610.69
2023-07-07T08:39:53.709Z,100619.47
2023-07-07T08:42:32.002Z,100609.16
2023-07-07T08:45:02.604Z,100613.06
2023-07-07T08:47:48.678Z,100615.91
2023-07-07T08:50:29.259Z,100621.09
2023-07-07T08:53:11.863Z,100604.25
2023-07-07T08:55:54.626Z,100604.34
2023-07-07T08:58:29.458Z,100603.34
2023-07-07T09:01:26.686Z,100598.56
2023-07-07T09:04:12.138Z,100601.53
2023-07-07T09:07:02.317Z,100592.72
2023-07-07T09:09:46.954Z,100594.97
2023-07-07T09:12:29.318Z,100593.78
2023-07-07T09:15:00.654Z,100596.03
2023-07-07T09:17:37.725Z,100599.84
2023-07-07T09:20:06.866Z,100595.41
2023-07-07T09:22:44.804Z,100592.00
2023-07-07T09:25:49.988Z,100590.69
2023-07-07T09:28:19.076Z,100584.63
2023-07-07T09:30:57.573Z,100584.78
2023-07-07T09:33:26.161Z,100589.41
2023-07-07T09:35:59.022Z,100573.59
2023-07-07T09:38:53.421Z,100584.03
2023-07-07T09:41:30.121Z,100573.41
2023-07-07T09:44:18.905Z,100569.75
2023-07-07T09:47:12.652Z,100573.19
2023-07-07T09:49:46.627Z,100576.31
2023-07-07T09:52:37.800Z,100561.47
2023-07-07T09:55:15.303Z,100559.63
2023-07-07T09:57:59.746Z,100553.56
2023-07-07T10:00:44.044Z,100557.41
2023-07-07T10:03:24.568Z,100558.28
2023-07-07T10:05:55.863Z,100544.72
2023-07-07T10:08:23.654Z,100548.00
2023-07-07T10:11:50.583Z,100552.31
2023-07-07T10:14:05.559Z,100560.06
2023-07-07T10:16:34.133Z,100551.75
2023-07-07T10:19:11.304Z,100560.72
2023-07-07T10:21:38.822Z,100552.59
2023-07-07T10:24:06.494Z,100547.94
2023-07-07T10:26:34.347Z,100537.84
2023-07-07T10:29:05.533Z,100542.19
2023-07-07T10:31:34.221Z,100544.50
2023-07-07T10:34:21.915Z,100536.00
2023-07-07T10:36:49.144Z,100541.59
2023-07-07T10:39:16.286Z,100535.25
2023-07-07T10:41:43.818Z,100541.13
2023-07-07T10:44:10.893Z,100538.03
2023-07-07T10:46:38.395Z,100531.25
2023-07-07T10:49:05.821Z,100528.25
2023-07-07T10:51:55.938Z,100529.25
2023-07-07T10:54:36.721Z,100506.59
2023-07-07T10:57:33.348Z,100515.81
2023-07-07T11:00:31.027Z,100520.13
2023-07-07T11:03:02.961Z,100523.88
2023-07-07T11:06:03.407Z,100519.91
2023-07-07T11:08:48.397Z,100520.56
2023-07-07T11:11:57.377Z,100512.00
2023-07-07T11:14:58.847Z,100514.94
2023-07-07T11:17:38.055Z,100505.53
2023-07-07T11:20:37.471Z,100500.94
2023-07-07T11:23:04.455Z,100500.59
2023-07-07T11:25:54.630Z,100495.47
2023-07-07T11:28:22.184Z,100497.53
2023-07-07T11:30:52.136Z,100501.69
2023-07-07T11:33:24.953Z,100498.50
2023-07-07T11:35:56.346Z,100482.50
2023-07-07T11:38:30.480Z,100485.44
2023-07-07T11:41:03.563Z,100487.91
2023-07-07T11:43:55.295Z,100485.66
2023-07-07T11:46:41.334Z,100479.53
2023-07-07T11:49:28.117Z,100474.69
2023-07-07T11:51:55.282Z,100458.97
2023-07-07T11:54:31.561Z,100459.25
2023-07-07T11:57:15.518Z,100461.63
2023-07-07T12:00:04.682Z,100470.09
2023-07-07T12:02:44.772Z,100462.19
2023-07-07T12:05:15.957Z,100453.53
2023-07-07T12:07:52.771Z,100456.94
2023-07-07T12:10:27.262Z,100450.16
2023-07-07T12:13:11.917Z,100452.16
2023-07-07T12:15:50.799Z,100444.19
2023-07-07T12:18:23.340Z,100446.59
2023-07-07T12:20:56.628Z,100440.72
2023-07-07T12:23:30.790Z,100443.28
2023-07-07T12:26:18.762Z,100447.84
2023-07-07T12:28:51.288Z,100452.72
2023-07-07T12:31:20.896Z,100443.50
2023-07-07T12:33:52.537Z,100445.97
2023-07-07T12:36:30.958Z,100443.59
2023-07-07T12:39:02.231Z,100451.69
2023-07-07T12:41:30.360Z,100435.31
2023-07-07T12:44:04.893Z,100428.22
2023-07-07T12:46:35.328Z,100425.88
2023-07-07T12:49:20.395Z,100428.69
2023-07-07T12:51:47.425Z,100420.84
2023-07-07T12:54:35.677Z,100420.22
2023-07-07T12:57:27.732Z,100419.81
2023-07-07T13:00:32.151Z,100423.56
2023-07-07T13:03:11.421Z,100416.88
2023-07-07T13:05:50.442Z,100412.97
2023-07-07T13:08:37.771Z,100404.09
2023-07-07T13:11:08.801Z,100407.34
2023-07-07T13:13:40.240Z,100394.34
2023-07-07T13:16:14.720Z,100392.47
2023-07-07T13:18:43.355Z,100394.16
2023-07-07T13:21:14.113Z,100389.22
2023-07-07T13:23:50.120Z,100383.94
2023-07-07T13:26:29.238Z,100384.44
2023-07-07T13:29:06.908Z,100375.19
2023-07-07T13:31:39.673Z,100378.84
2023-07-07T13:34:19.252Z,100380.50
2023-07-07T13:36:48.444Z,100378.56
2023-07-07T13:39:16.178Z,100375.97
2023-07-07T13:41:45.814Z,100368.13
2023-07-07T13:44:21.060Z,100362.59
2023-07-07T13:47:02.638Z,100370.41
2023-07-07T13:49:33.221Z,100358.81
2023-07-07T13:52:00.520Z,100349.38
2023-07-07T13:54:27.684Z,100352.63
2023-07-07T13:57:05.378Z,100350.81
2023-07-07T13:59:33.077Z,100358.84
2023-07-07T14:02:00.664Z,100353.22
2023-07-07T14:04:36.842Z,100352.09
2023-07-07T14:07:04.441Z,100343.22
2023-07-07T14:09:40.368Z,100347.69
2023-07-07T14:12:12.996Z,100350.22
2023-07-07T14:14:53.102Z,100340.50
2023-07-07T14:17:32.755Z,100344.63
2023-07-07T14:20:28.050Z,100341.84
2023-07-07T14:22:58.056Z,100340.94
2023-07-07T14:25:27.302Z,100341.88
2023-07-07T14:27:57.341Z,100339.13
2023-07-07T14:30:25.577Z,100333.28
2023-07-07T14:32:55.645Z,100329.13
2023-07-07T14:35:33.533Z,100320.25
2023-07-07T14:38:05.930Z,100313.66
2023-07-07T14:41:35.971Z,100321.31
2023-07-07T14:44:03.854Z,100321.06
2023-07-07T14:46:38.663Z,100314.81
2023-07-07T14:49:20.319Z,100320.63
2023-07-07T14:51:50.396Z,100319.38
2023-07-07T14:54:20.135Z,100321.34
2023-07-07T14:57:05.888Z,100330.94
2023-07-07T14:59:38.086Z,100322.81
2023-07-07T15:02:17.465Z,100315.63
2023-07-07T15:04:46.357Z,100322.03
2023-07-07T15:07:25.339Z,100316.91
2023-07-07T15:09:52.882Z,100318.88
2023-07-07T15:12:19.974Z,100317.06
2023-07-07T15:14:47.572Z,100308.22
2023-07-07T15:17:14.684Z,100310.75
2023-07-07T15:19:43.382Z,100312.13
2023-07-07T15:22:13.870Z,100304.59
2023-07-07T15:24:40.988Z,100307.50
2023-07-07T15:27:13.133Z,100301.34
2023-07-07T15:29:40.885Z,100304.06
2023-07-07T15:32:11.864Z,100299.84
2023-07-07T15:34:39.815Z,100297.16
2023-07-07T15:37:12.161Z,100292.16
2023-07-07T15:39:39.326Z,100292.72
2023-07-07T15:42:13.710Z,100283.66
2023-07-07T15:44:41.813Z,100285.09
2023-07-07T15:47:23.598Z,100287.50
2023-07-07T15:49:50.861Z,100295.38
2023-07-07T15:52:18.676Z,100294.72
2023-07-07T15:54:45.961Z,100299.41
2023-07-07T15:57:14.203Z,100291.38
2023-07-07T15:59:42.048Z,100283.56
2023-07-07T16:02:18.022Z,100288.00
2023-07-07T16:04:46.020Z,100298.94
2023-07-07T16:07:17.305Z,100306.28
2023-07-07T16:09:45.929Z,100312.66
2023-07-07T16:12:18.628Z,100329.91
2023-07-07T16:14:46.922Z,100319.66
2023-07-07T16:17:17.576Z,100321.28
2023-07-07T16:19:45.101Z,100330.53
2023-07-07T16:22:14.908Z,100317.59
2023-07-07T16:24:42.410Z,100297.03
2023-07-07T16:27:18.040Z,100311.03
2023-07-07T16:29:47.122Z,100323.19
2023-07-07T16:32:14.344Z,100320.59
2023-07-07T16:34:41.875Z,100327.44
2023-07-07T16:37:14.977Z,100314.63
2023-07-07T16:39:42.749Z,100327.94
2023-07-07T16:42:14.156Z,100332.50
2023-07-07T16:44:41.885Z,100338.06
2023-07-07T16:47:12.643Z,100334.63
2023-07-07T16:49:40.472Z,100335.44
2023-07-07T16:52:08.764Z,100342.28
2023-07-07T16:54:36.042Z,100337.44
2023-07-07T16:57:03.571Z,100339.66
2023-07-07T16:59:30.568Z,100340.03
2023-07-07T17:01:57.740Z,100341.88
2023-07-07T17:04:25.749Z,100341.81
2023-07-07T17:06:53.103Z,100342.97
2023-07-07T17:09:22.938Z,100347.03
2023-07-07T17:11:50.261Z,100345.25
2023-07-07T17:14:17.768Z,100344.56
2023-07-07T17:16:45.507Z,100343.63
2023-07-07T17:19:18.740Z,100342.75
2023-07-07T17:21:45.992Z,100333.84
2023-07-07T17:24:13.185Z,100336.31
2023-07-07T17:26:41.473Z,100342.88
2023-07-07T17:29:16.302Z,100349.22
2023-07-07T17:31:44.568Z,100362.34
2023-07-07T17:34:13.759Z,100366.94
2023-07-07T17:36:42.589Z,100369.09
2023-07-07T17:39:15.479Z,100368.34
2023-07-07T17:41:44.046Z,100370.53
2023-07-07T17:44:11.243Z,100370.50
2023-07-07T17:46:43.077Z,100377.28
2023-07-07T17:49:15.229Z,100393.47
2023-07-07T17:51:42.958Z,100394.59
2023-07-07T17:54:11.853Z,100397.34
2023-07-07T17:56:41.553Z,100390.66
2023-07-07T17:59:18.704Z,100396.50
2023-07-07T18:01:47.460Z,100391.91
2023-07-07T18:04:15.039Z,100392.44
2023-07-07T18:06:48.138Z,100399.13
2023-07-07T18:09:15.901Z,100399.94
2023-07-07T18:11:43.080Z,100391.00
2023-07-07T18:14:11.209Z,100395.53
2023-07-07T18:16:44.374Z,100386.50
2023-07-07T18:19:38.137Z,100391.38
2023-07-07T18:22:10.732Z,100393.00
2023-07-07T18:24:38.773Z,100390.38
2023-07-07T18:27:06.034Z,100383.97
2023-07-07T18:29:33.254Z,100380.31
2023-07-07T18:32:00.398Z,100382.78
2023-07-07T18:34:27.803Z,100366.72
2023-07-07T18:36:55.329Z,100362.09
2023-07-07T18:39:25.607Z,100363.25
2023-07-07T18:41:52.829Z,100367.66
2023-07-07T18:44:23.778Z,100363.69
2023-07-07T18:46:51.708Z,100363.22
2023-07-07T18:49:19.456Z,100362.22
2023-07-07T18:51:47.462Z,100358.00
2023-07-07T18:54:17.181Z,100357.81
2023-07-07T18:56:47.949Z,100357.00
2023-07-07T18:59:21.271Z,100356.09
2023-07-07T19:01:48.915Z,100359.88
2023-07-07T19:04:16.757Z,100358.78
2023-07-07T19:06:46.284Z,100365.59
2023-07-07T19:09:19.310Z,100357.00
2023-07-07T19:11:51.247Z,100358.25
2023-07-07T19:14:18.583Z,100361.53
2023-07-07T19:16:46.707Z,100360.69
2023-07-07T19:19:21.550Z,100350.66
2023-07-07T19:21:48.928Z,100352.22
2023-07-07T19:24:16.382Z,100351.28
2023-07-07T19:26:48.547Z,100346.34
2023-07-07T19:29:15.916Z,100353.59
2023-07-07T19:31:44.286Z,100352.47
2023-07-07T19:34:13.117Z,100353.13
2023-07-07T19:36:42.674Z,100355.28
2023-07-07T19:39:22.079Z,100346.47
2023-07-07T19:41:51.621Z,100352.81
2023-07-07T19:44:20.078Z,100348.31
2023-07-07T19:46:47.542Z,100344.13
2023-07-07T19:49:25.669Z,100350.94
2023-07-07T19:51:53.891Z,100352.38
2023-07-07T19:54:24.397Z,100347.13
2023-07-07T19:56:51.692Z,100347.66
2023-07-07T19:59:20.553Z,100349.59
2023-07-07T20:01:49.208Z,100345.19
2023-07-07T20:04:17.016Z,100349.63
2023-07-07T20:06:45.902Z,100355.94
2023-07-07T20:09:17.581Z,100354.00
2023-07-07T20:11:46.169Z,100356.66
2023-07-07T20:14:13.509Z,100359.34
2023-07-07T20:16:50.451Z,100356.66
2023-07-07T20:19:22.540Z,100356.06
2023-07-07T20:21:50.989Z,100353.38
2023-07-07T20:24:19.349Z,100350.13
2023-07-07T20:26:48.658Z,100347.97
2023-07-07T20:29:18.392Z,100348.47
2023-07-07T20:31:47.430Z,100352.47
2023-07-07T20:34:14.958Z,100354.00
2023-07-07T20:36:43.705Z,100345.78
2023-07-07T20:39:21.299Z,100347.84
2023-07-07T20:41:51.068Z,100350.03
2023-07-07T20:44:18.168Z,100342.97
2023-07-07T20:46:46.570Z,100336.13
2023-07-07T20:49:19.488Z,100329.31
2023-07-07T20:51:47.794Z,100334.75
2023-07-07T20:54:15.152Z,100338.41
2023-07-07T20:56:42.344Z,100331.09
2023-07-07T20:59:25.017Z,100322.66
2023-07-07T21:01:55.346Z,100323.50
2023-07-07T21:04:23.328Z,100319.56
2023-07-07T21:06:50.746Z,100319.56
2023-07-07T21:09:18.734Z,100314.03
2023-07-07T21:11:45.832Z,100318.31
2023-07-07T21:14:13.759Z,100316.44
2023-07-07T21:16:46.358Z,100313.09
2023-07-07T21:19:14.879Z,100320.25
2023-07-07T21:21:42.334Z,100314.75
2023-07-07T21:24:09.851Z,100306.75
2023-07-07T21:26:37.221Z,100315.22
2023-07-07T21:29:12.136Z,100310.22
2023-07-07T21:31:40.558Z,100308.22
2023-07-07T21:34:27.751Z,100302.25
2023-07-07T21:36:55.318Z,100303.81
2023-07-07T21:39:33.331Z,100303.28
2023-07-07T21:44:32.449Z,100308.91
2023-07-07T21:46:59.703Z,100312.19
2023-07-07T21:49:27.076Z,100312.03
2023-07-07T21:51:54.144Z,100320.75
2023-07-07T21:54:21.493Z,100319.13
2023-07-07T21:56:48.825Z,100327.09
2023-07-07T21:59:18.827Z,100330.06
2023-07-07T22:01:48.598Z,100340.81
2023-07-07T22:04:16.430Z,100337.81
2023-07-07T22:06:44.783Z,100340.00
2023-07-07T22:09:17.540Z,100334.94
2023-07-07T22:11:45.738Z,100335.25
2023-07-07T22:14:12.861Z,100342.63
2023-07-07T22:16:40.096Z,100337.53
2023-07-07T22:19:13.130Z,100344.91
2023-07-07T22:21:40.651Z,100345.50
2023-07-07T22:24:07.698Z,100342.19
2023-07-07T22:26:35.806Z,100340.75
2023-07-07T22:29:03.320Z,100330.38
2023-07-07T22:31:30.460Z,100334.38
2023-07-07T22:33:57.452Z,100341.00
2023-07-07T22:36:26.882Z,100333.72
2023-07-07T22:38:54.203Z,100335.84
2023-07-07T22:41:24.435Z,100330.91
2023-07-07T22:43:52.377Z,100331.81
2023-07-07T22:46:29.876Z,100331.88
2023-07-07T22:48:57.040Z,100322.50
2023-07-07T22:51:24.256Z,100319.63
2023-07-07T22:53:51.409Z,100321.44
2023-07-07T22:56:27.027Z,100314.09
2023-07-07T22:58:55.822Z,100317.88
2023-07-07T23:01:25.838Z,100321.94
2023-07-07T23:03:56.900Z,100329.38
2023-07-07T23:06:23.958Z,100333.41
2023-07-07T23:08:58.988Z,100337.63
2023-07-07T23:11:26.690Z,100347.06
2023-07-07T23:13:58.170Z,100340.22
2023-07-07T23:16:26.442Z,100336.97
2023-07-07T23:18:53.607Z,100331.22
2023-07-07T23:21:21.681Z,100332.97
2023-07-07T23:23:49.092Z,100336.50
2023-07-07T23:26:28.745Z,100341.88
2023-07-07T23:28:57.490Z,100335.53
2023-07-07T23:31:29.076Z,100336.38
2023-07-07T23:33:57.047Z,100336.16
2023-07-07T23:36:34.354Z,100325.22
2023-07-07T23:39:03.039Z,100326.13
2023-07-07T23:41:30.665Z,100322.31
2023-07-07T23:43:57.711Z,100322.91
2023-07-07T23:46:24.874Z,100328.06
2023-07-07T23:48:52.227Z,100331.94
2023-07-07T23:51:19.239Z,100342.34
2023-07-07T23:53:47.645Z,100335.28
2023-07-07T23:56:20.515Z,100336.72
2023-07-07T23:58:48.030Z,100330.09
